createdAt,value
2018-07-24T00:02:19.997Z,45.77
2018-07-24T00:04:47.573Z,45.39
2018-07-24T00:07:15.145Z,45.45
2018-07-24T00:09:42.949Z,45.08
2018-07-24T00:12:10.537Z,45.59
2018-07-24T00:14:38.077Z,45.25
2018-07-24T00:17:05.645Z,46.85
2018-07-24T00:19:33.229Z,47.61
2018-07-24T00:22:00.784Z,47.20
2018-07-24T00:24:28.484Z,47.17
2018-07-24T00:26:56.052Z,47.12
2018-07-24T00:29:23.580Z,47.27
2018-07-24T00:31:51.126Z,46.40
2018-07-24T00:34:19.220Z,46.36
2018-07-24T00:36:46.792Z,47.28
2018-07-24T00:39:14.383Z,47.05
2018-07-24T00:41:41.965Z,46.85
2018-07-24T00:44:09.537Z,46.99
2018-07-24T00:46:37.085Z,47.82
2018-07-24T00:49:04.666Z,48.41
2018-07-24T00:51:32.251Z,48.12
2018-07-24T00:53:59.778Z,48.98
2018-07-24T00:56:27.380Z,48.34
2018-07-24T00:58:54.933Z,48.59
2018-07-24T01:01:22.569Z,48.39
2018-07-24T01:03:50.097Z,48.67
2018-07-24T01:06:17.702Z,48.57
2018-07-24T01:08:45.218Z,48.27
2018-07-24T01:11:12.759Z,47.90
2018-07-24T01:13:40.341Z,48.91
2018-07-24T01:16:07.860Z,48.43
2018-07-24T01:18:35.408Z,49.43
2018-07-24T01:21:03.034Z,48.81
2018-07-24T01:23:30.604Z,48.96
2018-07-24T01:25:58.182Z,49.13
2018-07-24T01:28:25.742Z,48.84
2018-07-24T01:30:53.316Z,49.49
2018-07-24T01:33:20.841Z,49.95
2018-07-24T01:35:48.391Z,50.01
2018-07-24T01:38:15.966Z,49.73
2018-07-24T01:40:43.485Z,49.92
2018-07-24T01:43:11.071Z,49.73
2018-07-24T01:45:38.593Z,49.22
2018-07-24T01:48:06.387Z,50.22
2018-07-24T01:50:34.010Z,50.25
2018-07-24T01:53:01.603Z,51.70
2018-07-24T01:55:29.190Z,51.25
2018-07-24T01:57:56.772Z,50.66
2018-07-24T02:00:25.137Z,50.49
2018-07-24T02:02:52.705Z,50.08
2018-07-24T02:05:20.268Z,50.00
2018-07-24T02:07:47.802Z,49.48
2018-07-24T02:10:15.382Z,49.69
2018-07-24T02:12:42.956Z,49.78
2018-07-24T02:15:10.495Z,49.68
2018-07-24T02:17:38.063Z,49.26
2018-07-24T02:20:05.869Z,49.22
2018-07-24T02:22:33.406Z,50.02
2018-07-24T02:25:01.197Z,50.53
2018-07-24T02:27:28.840Z,50.38
2018-07-24T02:29:56.602Z,51.25
2018-07-24T02:32:24.175Z,51.22
2018-07-24T02:34:51.768Z,51.12
2018-07-24T02:37:19.342Z,51.43
2018-07-24T02:39:46.852Z,51.75
2018-07-24T02:42:14.413Z,51.48
2018-07-24T02:44:41.987Z,51.27
2018-07-24T02:47:09.528Z,50.99
2018-07-24T02:49:37.070Z,51.40
2018-07-24T02:52:04.722Z,50.91
2018-07-24T02:54:32.321Z,50.88
2018-07-24T02:57:00.873Z,51.42
2018-07-24T02:59:28.505Z,51.91
2018-07-24T03:01:56.075Z,51.55
2018-07-24T03:04:23.635Z,51.82
2018-07-24T03:06:51.156Z,51.81
2018-07-24T03:09:18.797Z,51.99
2018-07-24T03:11:46.396Z,51.82
2018-07-24T03:14:13.975Z,51.79
2018-07-24T03:16:41.543Z,52.05
2018-07-24T03:19:09.126Z,53.09
2018-07-24T03:21:37.448Z,53.45
2018-07-24T03:24:05.060Z,53.12
2018-07-24T03:26:32.629Z,52.90
2018-07-24T03:29:00.356Z,52.53
2018-07-24T03:31:29.491Z,52.30
2018-07-24T03:33:57.050Z,52.23
2018-07-24T03:36:24.748Z,52.81
2018-07-24T03:38:53.283Z,52.56
2018-07-24T03:41:20.843Z,53.11
2018-07-24T03:43:48.410Z,52.66
2018-07-24T03:46:16.006Z,52.52
2018-07-24T03:48:43.583Z,51.73
2018-07-24T03:51:11.188Z,52.12
2018-07-24T03:53:38.762Z,51.91
2018-07-24T03:56:06.834Z,51.71
2018-07-24T03:58:34.421Z,51.81
2018-07-24T04:01:01.977Z,51.41
2018-07-24T04:03:29.502Z,51.53
2018-07-24T04:05:57.093Z,51.45
2018-07-24T04:08:24.635Z,51.18
2018-07-24T04:10:52.169Z,50.63
2018-07-24T04:13:19.740Z,51.02
2018-07-24T04:15:47.277Z,50.24
2018-07-24T04:18:15.896Z,50.83
2018-07-24T04:20:43.453Z,51.44
2018-07-24T04:23:11.021Z,51.85
2018-07-24T04:25:38.562Z,51.32
2018-07-24T04:28:06.154Z,52.00
2018-07-24T04:30:33.760Z,51.57
2018-07-24T04:33:01.310Z,50.82
2018-07-24T04:35:28.914Z,50.83
2018-07-24T04:37:56.497Z,50.56
2018-07-24T04:40:24.099Z,49.82
2018-07-24T04:42:51.829Z,49.54
2018-07-24T04:45:19.373Z,50.15
2018-07-24T04:47:46.925Z,49.67
2018-07-24T04:50:14.486Z,49.96
2018-07-24T04:52:42.035Z,49.47
2018-07-24T04:55:09.587Z,48.39
2018-07-24T04:57:37.169Z,48.49
2018-07-24T05:00:04.844Z,49.06
2018-07-24T05:02:32.525Z,48.49
2018-07-24T05:05:00.022Z,47.86
2018-07-24T05:07:27.542Z,47.55
2018-07-24T05:09:55.335Z,47.60
2018-07-24T05:12:22.931Z,48.28
2018-07-24T05:14:50.664Z,48.33
2018-07-24T05:17:18.226Z,46.38
2018-07-24T05:19:45.757Z,46.72
2018-07-24T05:22:13.822Z,46.08
2018-07-24T05:24:41.417Z,45.98
2018-07-24T05:27:08.977Z,44.98
2018-07-24T05:29:36.564Z,44.13
2018-07-24T05:32:04.210Z,44.42
2018-07-24T05:34:32.380Z,43.61
2018-07-24T05:36:59.937Z,42.67
2018-07-24T05:39:27.471Z,41.26
2018-07-24T05:41:55.030Z,40.81
2018-07-24T05:44:22.626Z,42.35
2018-07-24T05:46:50.173Z,41.95
2018-07-24T05:49:17.710Z,41.94
2018-07-24T05:51:45.315Z,42.38
2018-07-24T05:54:12.845Z,41.65
2018-07-24T05:56:40.365Z,42.57
2018-07-24T05:59:07.901Z,42.36
2018-07-24T06:01:35.479Z,41.12
2018-07-24T06:04:03.073Z,40.76
2018-07-24T06:06:30.695Z,40.40
2018-07-24T06:08:58.254Z,40.23
2018-07-24T06:11:25.773Z,40.56
2018-07-24T06:13:53.320Z,40.18
2018-07-24T06:16:20.858Z,40.45
2018-07-24T06:18:48.400Z,39.79
2018-07-24T06:21:15.993Z,39.72
2018-07-24T06:23:43.696Z,40.12
2018-07-24T06:26:11.240Z,39.07
2018-07-24T06:28:38.840Z,38.53
2018-07-24T06:31:06.420Z,39.38
2018-07-24T06:33:33.995Z,38.28
2018-07-24T06:36:01.554Z,38.51
2018-07-24T06:38:29.143Z,37.91
2018-07-24T06:40:56.719Z,37.74
2018-07-24T06:43:24.369Z,37.66
2018-07-24T06:45:52.258Z,39.16
2018-07-24T06:48:19.790Z,38.79
2018-07-24T06:50:47.334Z,39.82
2018-07-24T06:53:14.880Z,40.08
2018-07-24T06:55:42.472Z,39.85
2018-07-24T06:58:10.048Z,39.32
2018-07-24T07:00:37.742Z,38.76
2018-07-24T07:03:05.520Z,38.11
2018-07-24T07:05:33.148Z,37.22
2018-07-24T07:08:01.199Z,38.08
2018-07-24T07:10:28.892Z,37.93
2018-07-24T07:12:56.645Z,38.04
2018-07-24T07:15:24.303Z,37.49
2018-07-24T07:17:51.881Z,37.73
2018-07-24T07:20:19.405Z,37.02
2018-07-24T07:22:47.105Z,36.26
2018-07-24T07:25:14.673Z,36.32
2018-07-24T07:27:42.243Z,36.70
2018-07-24T07:30:09.899Z,37.64
2018-07-24T07:32:37.556Z,37.88
2018-07-24T07:35:05.296Z,38.85
2018-07-24T07:37:32.898Z,38.13
2018-07-24T07:40:00.523Z,36.77
2018-07-24T07:42:28.266Z,37.63
2018-07-24T07:44:55.854Z,36.58
2018-07-24T07:47:23.466Z,37.67
2018-07-24T07:49:51.097Z,37.13
2018-07-24T07:52:18.660Z,37.96
2018-07-24T07:54:46.550Z,35.97
2018-07-24T07:57:14.122Z,36.21
2018-07-24T07:59:41.622Z,36.38
2018-07-24T08:02:09.218Z,36.96
2018-07-24T08:04:36.772Z,38.38
2018-07-24T08:07:04.502Z,37.53
2018-07-24T08:09:32.072Z,36.66
2018-07-24T08:11:59.847Z,37.13
2018-07-24T08:14:27.402Z,37.47
2018-07-24T08:16:54.983Z,37.29
2018-07-24T08:19:22.625Z,37.09
2018-07-24T08:21:50.263Z,37.05
2018-07-24T08:24:17.807Z,36.26
2018-07-24T08:26:45.377Z,36.25
2018-07-24T08:29:12.949Z,36.39
2018-07-24T08:31:40.597Z,36.71
2018-07-24T08:34:08.253Z,37.02
2018-07-24T08:36:35.847Z,35.95
2018-07-24T08:39:08.024Z,37.04
2018-07-24T08:41:35.612Z,36.14
2018-07-24T08:44:03.289Z,36.09
2018-07-24T08:46:30.862Z,35.62
2018-07-24T08:48:58.445Z,35.35
2018-07-24T08:51:26.024Z,34.57
2018-07-24T08:53:53.880Z,35.27
2018-07-24T08:56:21.196Z,35.19
2018-07-24T08:58:48.731Z,34.88
2018-07-24T09:01:16.329Z,35.20
2018-07-24T09:03:43.903Z,34.21
2018-07-24T09:06:11.493Z,34.67
2018-07-24T09:08:39.074Z,35.33
2018-07-24T09:11:07.115Z,35.92
2018-07-24T09:13:34.724Z,35.17
2018-07-24T09:16:02.366Z,35.75
2018-07-24T09:18:29.912Z,34.89
2018-07-24T09:20:57.506Z,34.47
2018-07-24T09:23:25.060Z,34.03
2018-07-24T09:25:52.610Z,36.04
2018-07-24T09:28:20.182Z,34.88
2018-07-24T09:30:47.786Z,34.76
2018-07-24T09:33:15.513Z,35.54
2018-07-24T09:35:43.079Z,35.86
2018-07-24T09:38:10.848Z,35.13
2018-07-24T09:40:38.472Z,35.82
2018-07-24T09:43:06.086Z,36.11
2018-07-24T09:45:33.697Z,35.58
2018-07-24T09:48:01.241Z,35.93
2018-07-24T09:50:28.945Z,35.75
2018-07-24T09:52:56.515Z,35.32
2018-07-24T09:55:24.085Z,35.11
2018-07-24T09:57:52.110Z,34.63
2018-07-24T10:00:24.331Z,34.33
2018-07-24T10:02:51.919Z,33.32
2018-07-24T10:05:26.290Z,34.29
2018-07-24T10:07:53.818Z,34.78
2018-07-24T10:10:21.447Z,34.41
2018-07-24T10:12:49.145Z,33.25
2018-07-24T10:15:16.621Z,33.78
2018-07-24T10:17:44.161Z,34.13
2018-07-24T10:20:11.939Z,34.42
2018-07-24T10:22:39.706Z,32.22
2018-07-24T10:25:07.309Z,32.44
2018-07-24T10:27:34.977Z,31.88
2018-07-24T10:30:02.617Z,31.90
2018-07-24T10:32:30.244Z,32.13
2018-07-24T10:34:57.873Z,32.85
2018-07-24T10:37:25.491Z,33.56
2018-07-24T10:39:53.114Z,32.37
2018-07-24T10:42:20.776Z,33.28
2018-07-24T10:44:48.414Z,32.66
2018-07-24T10:47:16.055Z,31.53
2018-07-24T10:49:43.674Z,31.28
2018-07-24T10:52:11.258Z,32.94
2018-07-24T10:54:38.920Z,31.58
2018-07-24T10:57:06.477Z,31.64
2018-07-24T10:59:33.998Z,32.38
2018-07-24T11:02:01.579Z,32.27
2018-07-24T11:04:29.215Z,31.74
2018-07-24T11:06:56.961Z,31.99
2018-07-24T11:09:24.564Z,31.79
2018-07-24T11:11:52.213Z,31.65
2018-07-24T11:14:20.395Z,30.48
2018-07-24T11:16:47.965Z,31.08
2018-07-24T11:19:15.563Z,30.10
2018-07-24T11:21:43.137Z,30.13
2018-07-24T11:24:10.728Z,30.18
2018-07-24T11:26:38.338Z,31.38
2018-07-24T11:29:06.000Z,30.03
2018-07-24T11:31:33.570Z,29.43
2018-07-24T11:34:01.190Z,29.90
2018-07-24T11:36:28.850Z,29.83
2018-07-24T11:38:56.516Z,29.44
2018-07-24T11:41:24.180Z,28.87
2018-07-24T11:43:51.794Z,29.07
2018-07-24T11:46:19.378Z,29.20
2018-07-24T11:48:47.053Z,28.73
2018-07-24T11:51:14.681Z,28.47
2018-07-24T11:53:42.217Z,28.19
2018-07-24T11:56:09.861Z,29.15
2018-07-24T11:58:37.422Z,29.19
2018-07-24T12:01:05.018Z,28.66
2018-07-24T12:03:32.716Z,28.25
2018-07-24T12:06:00.281Z,27.94
2018-07-24T12:08:27.969Z,27.51
2018-07-24T12:10:55.775Z,28.30
2018-07-24T12:13:23.471Z,26.70
2018-07-24T12:15:51.189Z,26.81
2018-07-24T12:18:19.897Z,26.48
2018-07-24T12:20:47.610Z,26.08
2018-07-24T12:23:15.174Z,25.47
2018-07-24T12:25:42.768Z,24.82
2018-07-24T12:28:10.654Z,25.29
2018-07-24T12:30:39.417Z,24.12
2018-07-24T12:33:07.030Z,24.61
2018-07-24T12:35:34.675Z,24.15
2018-07-24T12:38:02.451Z,24.00
2018-07-24T12:40:30.002Z,24.39
2018-07-24T12:42:57.578Z,23.93
2018-07-24T12:45:25.194Z,23.00
2018-07-24T12:47:52.763Z,23.32
2018-07-24T12:50:20.378Z,23.08
2018-07-24T12:52:47.967Z,22.15
2018-07-24T12:55:15.541Z,21.76
2018-07-24T12:57:43.108Z,22.92
2018-07-24T13:00:10.718Z,21.83
2018-07-24T13:02:38.327Z,22.54
2018-07-24T13:05:05.954Z,21.77
2018-07-24T13:07:33.544Z,21.74
2018-07-24T13:10:01.233Z,21.28
2018-07-24T13:12:28.717Z,21.31
2018-07-24T13:14:56.251Z,21.27
2018-07-24T13:17:23.861Z,20.93
2018-07-24T13:19:51.946Z,21.25
2018-07-24T13:22:19.537Z,20.61
2018-07-24T13:24:47.101Z,22.71
2018-07-24T13:27:14.673Z,22.36
2018-07-24T13:29:42.287Z,20.99
2018-07-24T13:32:10.061Z,20.58
2018-07-24T13:34:37.466Z,20.31
2018-07-24T13:37:05.050Z,21.00
2018-07-24T13:39:32.634Z,19.97
2018-07-24T13:42:00.228Z,20.11
2018-07-24T13:44:27.794Z,20.00
2018-07-24T13:46:55.385Z,19.91
2018-07-24T13:49:22.988Z,19.77
2018-07-24T13:51:50.615Z,19.24
2018-07-24T13:54:18.406Z,19.12
2018-07-24T13:56:46.003Z,19.30
2018-07-24T13:59:13.593Z,19.04
2018-07-24T14:01:41.163Z,18.34
2018-07-24T14:04:08.925Z,18.06
2018-07-24T14:06:36.517Z,18.03
2018-07-24T14:09:07.238Z,18.96
2018-07-24T14:11:34.859Z,18.42
2018-07-24T14:14:02.454Z,17.80
2018-07-24T14:16:30.037Z,18.32
2018-07-24T14:18:57.591Z,17.80
2018-07-24T14:21:25.209Z,18.79
2018-07-24T14:23:52.968Z,18.85
2018-07-24T14:26:20.556Z,18.10
2018-07-24T14:28:48.155Z,18.66
2018-07-24T14:31:15.823Z,18.62
2018-07-24T14:33:43.432Z,18.76
2018-07-24T14:36:10.985Z,18.67
2018-07-24T14:38:38.567Z,17.47
2018-07-24T14:41:06.364Z,17.79
2018-07-24T14:43:34.112Z,17.08
2018-07-24T14:46:01.777Z,16.72
2018-07-24T14:48:29.639Z,16.40
2018-07-24T14:50:57.238Z,17.41
2018-07-24T14:53:31.654Z,16.76
2018-07-24T14:55:59.251Z,16.34
2018-07-24T14:58:26.802Z,16.10
2018-07-24T15:00:54.449Z,16.82
2018-07-24T15:03:22.093Z,17.46
2018-07-24T15:05:49.643Z,16.91
2018-07-24T15:08:17.246Z,15.73
2018-07-24T15:10:44.875Z,15.92
2018-07-24T15:13:12.509Z,15.49
2018-07-24T15:15:40.101Z,15.59
2018-07-24T15:18:07.678Z,14.95
2018-07-24T15:20:35.376Z,15.53
2018-07-24T15:23:02.985Z,16.36
2018-07-24T15:25:30.600Z,16.31
2018-07-24T15:27:58.142Z,15.71
2018-07-24T15:30:25.856Z,15.21
2018-07-24T15:32:53.444Z,14.38
2018-07-24T15:35:21.052Z,15.33
2018-07-24T15:37:48.737Z,14.17
2018-07-24T15:40:16.286Z,14.51
2018-07-24T15:42:43.900Z,14.14
2018-07-24T15:45:11.418Z,14.11
2018-07-24T15:47:39.023Z,14.84
2018-07-24T15:50:06.729Z,15.43
2018-07-24T15:52:34.387Z,14.99
2018-07-24T15:55:01.981Z,15.00
2018-07-24T15:57:29.562Z,14.88
2018-07-24T15:59:57.147Z,14.75
2018-07-24T16:02:25.130Z,15.16
2018-07-24T16:04:52.738Z,15.02
2018-07-24T16:07:20.394Z,15.91
2018-07-24T16:09:48.004Z,15.14
2018-07-24T16:12:15.571Z,14.79
2018-07-24T16:14:43.127Z,14.51
2018-07-24T16:17:10.901Z,15.36
2018-07-24T16:19:39.348Z,14.31
2018-07-24T16:22:07.311Z,14.70
2018-07-24T16:24:35.684Z,13.78
2018-07-24T16:27:03.338Z,14.74
2018-07-24T16:29:30.976Z,13.99
2018-07-24T16:31:58.800Z,14.23
2018-07-24T16:34:26.436Z,14.33
2018-07-24T16:36:54.782Z,14.22
2018-07-24T16:39:22.398Z,14.13
2018-07-24T16:41:50.256Z,14.90
2018-07-24T16:44:17.974Z,14.71
2018-07-24T16:46:45.671Z,14.75
2018-07-24T16:49:13.339Z,13.99
2018-07-24T16:51:41.040Z,13.89
2018-07-24T16:54:08.857Z,13.88
2018-07-24T16:56:36.741Z,14.90
2018-07-24T16:59:04.457Z,14.57
2018-07-24T17:01:32.141Z,14.45
2018-07-24T17:03:59.827Z,13.80
2018-07-24T17:06:27.425Z,14.28
2018-07-24T17:08:55.100Z,14.53
2018-07-24T17:11:22.725Z,14.96
2018-07-24T17:13:50.423Z,14.91
2018-07-24T17:16:18.360Z,14.52
2018-07-24T17:18:46.845Z,14.04
2018-07-24T17:21:14.451Z,14.22
2018-07-24T17:23:42.020Z,13.59
2018-07-24T17:26:09.922Z,14.23
2018-07-24T17:28:37.462Z,14.40
2018-07-24T17:31:05.478Z,14.26
2018-07-24T17:33:33.084Z,15.20
2018-07-24T17:36:01.332Z,15.07
2018-07-24T17:38:29.018Z,15.07
2018-07-24T17:40:56.777Z,15.40
2018-07-24T17:43:24.513Z,15.67
2018-07-24T17:45:52.112Z,15.74
2018-07-24T17:48:19.838Z,15.53
2018-07-24T17:50:47.561Z,15.74
2018-07-24T17:53:15.280Z,15.76
2018-07-24T17:55:43.039Z,15.57
2018-07-24T17:58:10.626Z,15.71
2018-07-24T18:00:38.297Z,16.04
2018-07-24T18:03:06.189Z,15.91
2018-07-24T18:05:33.813Z,16.71
2018-07-24T18:08:01.466Z,17.17
2018-07-24T18:10:29.124Z,17.21
2018-07-24T18:12:57.717Z,17.45
2018-07-24T18:15:25.432Z,17.95
2018-07-24T18:17:53.085Z,18.75
2018-07-24T18:20:21.062Z,19.34
2018-07-24T18:22:48.960Z,19.46
2018-07-24T18:25:16.704Z,19.93
2018-07-24T18:27:44.451Z,20.25
2018-07-24T18:30:12.182Z,20.65
2018-07-24T18:32:39.830Z,21.88
2018-07-24T18:35:08.451Z,22.50
2018-07-24T18:37:36.212Z,22.47
2018-07-24T18:40:04.200Z,23.21
2018-07-24T18:42:31.874Z,23.35
2018-07-24T18:44:59.472Z,24.04
2018-07-24T18:47:27.240Z,23.82
2018-07-24T18:49:55.128Z,24.26
2018-07-24T18:52:22.814Z,24.66
2018-07-24T18:54:50.622Z,24.90
2018-07-24T18:57:18.330Z,25.46
2018-07-24T18:59:46.152Z,26.00
2018-07-24T19:02:13.906Z,25.89
2018-07-24T19:04:42.335Z,25.84
2018-07-24T19:07:10.369Z,25.98
2018-07-24T19:09:38.008Z,25.73
2018-07-24T19:12:05.755Z,26.34
2018-07-24T19:14:33.976Z,26.28
2018-07-24T19:17:01.738Z,26.93
2018-07-24T19:19:29.401Z,27.78
2018-07-24T19:21:57.271Z,27.71
2018-07-24T19:24:25.139Z,28.31
2018-07-24T19:26:52.843Z,27.53
2018-07-24T19:29:21.509Z,27.78
2018-07-24T19:31:49.265Z,29.00
2018-07-24T19:34:17.130Z,28.37
2018-07-24T19:36:45.423Z,28.50
2018-07-24T19:39:13.101Z,29.35
2018-07-24T19:41:40.892Z,29.32
2018-07-24T19:44:09.141Z,29.37
2018-07-24T19:46:36.971Z,30.41
2018-07-24T19:49:05.109Z,30.64
2018-07-24T19:51:32.899Z,30.88
2018-07-24T19:54:01.613Z,30.36
2018-07-24T19:56:29.787Z,30.78
2018-07-24T19:58:57.927Z,31.53
2018-07-24T20:01:25.712Z,31.38
2018-07-24T20:03:53.522Z,31.56
2018-07-24T20:06:21.320Z,32.50
2018-07-24T20:08:49.030Z,31.99
2018-07-24T20:11:16.873Z,32.68
2018-07-24T20:13:44.686Z,32.88
2018-07-24T20:16:12.780Z,32.94
2018-07-24T20:18:40.706Z,33.42
2018-07-24T20:21:08.561Z,33.23
2018-07-24T20:23:36.227Z,34.06
2018-07-24T20:26:03.954Z,34.16
2018-07-24T20:28:31.715Z,33.56
2018-07-24T20:30:59.558Z,33.92
2018-07-24T20:33:27.194Z,34.10
2018-07-24T20:35:54.958Z,34.90
2018-07-24T20:38:22.660Z,35.02
2018-07-24T20:40:50.377Z,35.12
2018-07-24T20:43:18.110Z,35.41
2018-07-24T20:45:45.819Z,35.31
2018-07-24T20:48:13.503Z,35.80
2018-07-24T20:50:46.176Z,35.47
2018-07-24T20:53:13.962Z,36.00
2018-07-24T20:55:41.832Z,36.14
2018-07-24T20:58:09.559Z,36.14
2018-07-24T21:00:37.351Z,36.79
2018-07-24T21:03:04.986Z,37.36
2018-07-24T21:05:32.857Z,37.03
2018-07-24T21:08:00.474Z,37.13
2018-07-24T21:10:28.092Z,38.40
2018-07-24T21:12:55.757Z,37.66
2018-07-24T21:15:23.591Z,37.45
2018-07-24T21:17:51.266Z,38.10
2018-07-24T21:20:19.008Z,38.16
2018-07-24T21:22:46.630Z,37.68
2018-07-24T21:25:14.585Z,37.58
2018-07-24T21:27:42.141Z,38.31
2018-07-24T21:30:10.257Z,38.13
2018-07-24T21:32:37.929Z,38.92
2018-07-24T21:35:05.718Z,38.91
2018-07-24T21:37:33.348Z,38.97
2018-07-24T21:40:01.082Z,39.04
2018-07-24T21:42:28.730Z,39.89
2018-07-24T21:44:56.293Z,39.66
2018-07-24T21:47:24.548Z,39.81
2018-07-24T21:49:52.146Z,40.41
2018-07-24T21:52:19.787Z,40.06
2018-07-24T21:54:47.435Z,40.45
2018-07-24T21:57:15.019Z,40.90
2018-07-24T21:59:42.670Z,40.95
2018-07-24T22:02:10.251Z,41.01
2018-07-24T22:04:37.890Z,40.88
2018-07-24T22:07:05.502Z,41.28
2018-07-24T22:09:33.146Z,41.42
2018-07-24T22:12:00.757Z,41.63
2018-07-24T22:14:28.341Z,41.66
2018-07-24T22:16:55.911Z,41.84
2018-07-24T22:19:23.551Z,42.36
2018-07-24T22:21:51.177Z,42.20
2018-07-24T22:24:18.753Z,41.62
2018-07-24T22:26:46.315Z,42.05
2018-07-24T22:29:14.213Z,42.50
2018-07-24T22:31:41.786Z,42.71
2018-07-24T22:34:09.366Z,42.19
2018-07-24T22:36:37.002Z,43.09
2018-07-24T22:39:07.336Z,43.07
2018-07-24T22:41:35.834Z,42.99
2018-07-24T22:44:03.619Z,43.40
2018-07-24T22:46:31.317Z,42.88
2018-07-24T22:48:58.944Z,43.35
2018-07-24T22:51:26.544Z,43.81
2018-07-24T22:53:54.167Z,44.36
2018-07-24T22:56:21.790Z,43.60
2018-07-24T22:58:49.420Z,43.40
2018-07-24T23:01:17.026Z,44.98
2018-07-24T23:03:44.606Z,44.55
2018-07-24T23:06:12.256Z,45.25
2018-07-24T23:08:39.846Z,45.17
2018-07-24T23:11:07.460Z,44.17
2018-07-24T23:13:34.966Z,44.27
2018-07-24T23:16:02.553Z,44.31
2018-07-24T23:18:30.153Z,44.25
2018-07-24T23:20:57.777Z,44.44
2018-07-24T23:23:25.427Z,44.65
2018-07-24T23:25:53.784Z,44.63
2018-07-24T23:28:21.801Z,45.04
2018-07-24T23:30:49.401Z,45.23
2018-07-24T23:33:16.952Z,46.06
2018-07-24T23:35:44.476Z,46.37
2018-07-24T23:38:12.067Z,45.86
2018-07-24T23:40:39.642Z,47.02
2018-07-24T23:43:07.299Z,46.91
2018-07-24T23:45:34.823Z,46.91
2018-07-24T23:48:02.490Z,46.92
2018-07-24T23:50:30.098Z,46.72
2018-07-24T23:52:58.210Z,46.94
2018-07-24T23:55:25.832Z,46.65
2018-07-24T23:57:53.450Z,47.60
